createdAt,value
2023-05-15T00:01:38.226Z,8.25
2023-05-15T00:04:04.841Z,8.25
2023-05-15T00:06:31.386Z,8.21
2023-05-15T00:08:57.840Z,8.20
2023-05-15T00:11:27.757Z,8.14
2023-05-15T00:13:54.565Z,8.14
2023-05-15T00:16:21.078Z,8.17
2023-05-15T00:18:47.691Z,8.14
2023-05-15T00:21:14.295Z,8.12
2023-05-15T00:23:40.735Z,8.08
2023-05-15T00:26:07.167Z,8.05
2023-05-15T00:28:33.707Z,8.08
2023-05-15T00:31:00.323Z,8.05
2023-05-15T00:33:26.759Z,8.07
2023-05-15T00:35:53.232Z,8.03
2023-05-15T00:38:19.640Z,8.02
2023-05-15T00:40:46.567Z,7.98
2023-05-15T00:43:15.253Z,7.94
2023-05-15T00:45:42.305Z,7.95
2023-05-15T00:48:10.084Z,7.78
2023-05-15T00:50:37.089Z,7.96
2023-05-15T00:53:03.730Z,7.88
2023-05-15T00:55:31.873Z,7.85
2023-05-15T00:57:59.667Z,7.83
2023-05-15T01:00:26.363Z,7.83
2023-05-15T01:02:54.393Z,7.88
2023-05-15T01:05:20.961Z,7.86
2023-05-15T01:08:05.918Z,7.88
2023-05-15T01:10:34.908Z,7.82
2023-05-15T01:13:02.469Z,7.80
2023-05-15T01:15:28.976Z,7.49
2023-05-15T01:17:55.578Z,7.52
2023-05-15T01:20:23.183Z,7.58
2023-05-15T01:23:20.397Z,7.50
2023-05-15T01:26:16.565Z,7.38
2023-05-15T01:28:48.554Z,7.46
2023-05-15T01:31:22.158Z,7.48
2023-05-15T01:33:54.714Z,7.49
2023-05-15T01:36:37.689Z,7.33
2023-05-15T01:39:05.522Z,7.48
2023-05-15T01:41:37.010Z,7.44
2023-05-15T01:44:20.157Z,7.23
2023-05-15T01:46:51.166Z,7.37
2023-05-15T01:49:19.662Z,7.36
2023-05-15T01:51:50.835Z,7.21
2023-05-15T01:54:19.581Z,7.30
2023-05-15T01:56:46.237Z,7.36
2023-05-15T01:59:14.496Z,7.44
2023-05-15T02:01:42.379Z,7.36
2023-05-15T02:04:09.703Z,7.36
2023-05-15T02:06:36.833Z,7.36
2023-05-15T02:09:04.093Z,7.36
2023-05-15T02:11:30.733Z,7.35
2023-05-15T02:13:59.007Z,7.40
2023-05-15T02:16:25.766Z,7.39
2023-05-15T02:18:52.667Z,7.41
2023-05-15T02:21:19.250Z,7.44
2023-05-15T02:23:46.349Z,7.31
2023-05-15T02:26:28.071Z,7.31
2023-05-15T02:29:20.152Z,7.23
2023-05-15T02:32:08.215Z,7.24
2023-05-15T02:34:58.861Z,7.23
2023-05-15T02:37:31.074Z,7.21
2023-05-15T02:39:59.796Z,7.04
2023-05-15T02:42:28.086Z,7.18
2023-05-15T02:44:55.278Z,7.12
2023-05-15T02:47:23.696Z,7.23
2023-05-15T02:49:50.521Z,7.24
2023-05-15T02:52:17.794Z,7.20
2023-05-15T02:54:44.307Z,7.23
2023-05-15T02:57:10.730Z,7.18
2023-05-15T02:59:37.526Z,7.10
2023-05-15T03:02:03.968Z,7.15
2023-05-15T03:04:30.389Z,7.13
2023-05-15T03:06:56.912Z,7.16
2023-05-15T03:09:23.338Z,7.19
2023-05-15T03:11:49.809Z,7.24
2023-05-15T03:14:16.257Z,7.16
2023-05-15T03:16:42.808Z,7.16
2023-05-15T03:19:09.350Z,7.20
2023-05-15T03:21:35.907Z,7.26
2023-05-15T03:24:02.389Z,7.29
2023-05-15T03:26:28.835Z,7.30
2023-05-15T03:28:55.271Z,7.45
2023-05-15T03:31:21.760Z,7.54
2023-05-15T03:33:51.418Z,7.67
2023-05-15T03:36:17.990Z,7.72
2023-05-15T03:38:44.465Z,7.77
2023-05-15T03:41:11.090Z,7.79
2023-05-15T03:43:37.596Z,7.79
2023-05-15T03:46:04.214Z,7.82
2023-05-15T03:48:31.722Z,7.81
2023-05-15T03:50:58.212Z,7.77
2023-05-15T03:53:24.779Z,7.79
2023-05-15T03:55:52.262Z,7.81
2023-05-15T03:58:18.764Z,7.83
2023-05-15T04:00:45.214Z,7.80
2023-05-15T04:03:11.785Z,7.80
2023-05-15T04:05:38.354Z,7.76
2023-05-15T04:08:05.227Z,7.78
2023-05-15T04:10:32.714Z,7.80
2023-05-15T04:12:59.205Z,7.79
2023-05-15T04:15:27.321Z,7.87
2023-05-15T04:17:54.373Z,7.90
2023-05-15T04:20:22.872Z,7.94
2023-05-15T04:22:49.463Z,7.97
2023-05-15T04:25:16.486Z,8.01
2023-05-15T04:27:44.350Z,8.04
2023-05-15T04:30:11.811Z,8.03
2023-05-15T04:32:39.659Z,8.06
2023-05-15T04:35:11.961Z,8.12
2023-05-15T04:37:39.820Z,8.13
2023-05-15T04:40:08.157Z,8.17
2023-05-15T04:42:36.800Z,8.20
2023-05-15T04:45:05.404Z,8.21
2023-05-15T04:47:32.436Z,8.24
2023-05-15T04:49:58.932Z,8.25
2023-05-15T04:52:25.973Z,8.28
2023-05-15T04:54:53.326Z,8.29
2023-05-15T04:57:21.497Z,8.31
2023-05-15T04:59:47.999Z,8.32
2023-05-15T05:02:14.446Z,8.36
2023-05-15T05:04:45.681Z,8.38
2023-05-15T05:07:12.151Z,8.40
2023-05-15T05:09:40.110Z,8.42
2023-05-15T05:12:07.985Z,8.43
2023-05-15T05:14:34.479Z,8.45
2023-05-15T05:17:01.024Z,8.49
2023-05-15T05:19:28.309Z,8.47
2023-05-15T05:21:55.594Z,8.52
2023-05-15T05:24:22.109Z,8.54
2023-05-15T05:26:48.613Z,8.56
2023-05-15T05:29:15.031Z,8.60
2023-05-15T05:31:41.585Z,8.61
2023-05-15T05:34:09.216Z,8.64
2023-05-15T05:36:36.999Z,8.66
2023-05-15T05:39:04.726Z,8.69
2023-05-15T05:41:31.229Z,8.72
2023-05-15T05:43:57.868Z,8.73
2023-05-15T05:46:24.557Z,8.77
2023-05-15T05:48:51.068Z,8.83
2023-05-15T05:51:17.546Z,8.86
2023-05-15T05:53:44.026Z,8.89
2023-05-15T05:56:10.717Z,8.92
2023-05-15T05:58:37.237Z,8.95
2023-05-15T06:01:03.887Z,9.00
2023-05-15T06:03:31.207Z,9.01
2023-05-15T06:05:57.774Z,8.99
2023-05-15T06:08:24.354Z,8.99
2023-05-15T06:10:51.094Z,9.03
2023-05-15T06:13:17.559Z,9.03
2023-05-15T06:15:45.854Z,9.01
2023-05-15T06:18:12.385Z,9.03
2023-05-15T06:20:39.027Z,9.05
2023-05-15T06:23:05.538Z,9.07
2023-05-15T06:25:32.804Z,9.06
2023-05-15T06:27:59.214Z,9.06
2023-05-15T06:30:26.001Z,9.12
2023-05-15T06:32:53.915Z,9.16
2023-05-15T06:35:20.813Z,9.19
2023-05-15T06:37:50.299Z,9.20
2023-05-15T06:40:16.911Z,9.22
2023-05-15T06:42:43.344Z,9.27
2023-05-15T06:45:10.500Z,9.34
2023-05-15T06:47:36.960Z,9.41
2023-05-15T06:50:04.848Z,9.45
2023-05-15T06:52:31.262Z,9.48
2023-05-15T06:54:57.963Z,9.49
2023-05-15T06:57:24.352Z,9.46
2023-05-15T06:59:50.850Z,9.45
2023-05-15T07:02:17.484Z,9.53
2023-05-15T07:04:44.116Z,9.50
2023-05-15T07:07:10.643Z,9.49
2023-05-15T07:09:37.138Z,9.45
2023-05-15T07:12:04.091Z,9.47
2023-05-15T07:14:30.555Z,9.57
2023-05-15T07:16:57.126Z,9.55
2023-05-15T07:19:23.723Z,9.61
2023-05-15T07:21:50.289Z,9.58
2023-05-15T07:24:16.701Z,9.57
2023-05-15T07:26:56.973Z,9.54
2023-05-15T07:29:24.993Z,9.53
2023-05-15T07:31:51.460Z,9.48
2023-05-15T07:34:17.978Z,9.46
2023-05-15T07:36:44.536Z,9.48
2023-05-15T07:39:11.062Z,9.43
2023-05-15T07:41:37.488Z,9.50
2023-05-15T07:44:04.130Z,9.47
2023-05-15T07:46:30.708Z,9.43
2023-05-15T07:48:57.296Z,9.47
2023-05-15T07:51:23.867Z,9.51
2023-05-15T07:53:50.654Z,9.47
2023-05-15T07:56:17.369Z,9.47
2023-05-15T07:58:43.877Z,9.51
2023-05-15T08:01:10.448Z,9.57
2023-05-15T08:03:36.922Z,9.54
2023-05-15T08:06:03.718Z,9.58
2023-05-15T08:08:30.857Z,9.54
2023-05-15T08:10:57.256Z,9.59
2023-05-15T08:13:23.914Z,9.59
2023-05-15T08:15:50.494Z,9.61
2023-05-15T08:18:17.072Z,9.67
2023-05-15T08:20:43.621Z,9.58
2023-05-15T08:23:10.051Z,9.65
2023-05-15T08:25:36.463Z,9.66
2023-05-15T08:28:04.696Z,9.61
2023-05-15T08:30:31.291Z,9.63
2023-05-15T08:32:57.852Z,9.64
2023-05-15T08:35:24.651Z,9.67
2023-05-15T08:37:51.410Z,9.73
2023-05-15T08:40:21.354Z,9.80
2023-05-15T08:42:55.668Z,9.68
2023-05-15T08:45:22.794Z,9.77
2023-05-15T08:47:49.457Z,9.82
2023-05-15T08:50:17.234Z,9.87
2023-05-15T08:52:47.166Z,9.89
2023-05-15T08:55:17.590Z,9.98
2023-05-15T08:57:45.153Z,9.97
2023-05-15T09:00:14.827Z,10.08
2023-05-15T09:02:42.823Z,10.04
2023-05-15T09:05:10.096Z,10.12
2023-05-15T09:07:39.025Z,10.00
2023-05-15T09:10:06.268Z,10.11
2023-05-15T09:12:34.459Z,10.14
2023-05-15T09:15:15.997Z,10.18
2023-05-15T09:17:43.305Z,10.16
2023-05-15T09:20:32.736Z,10.11
2023-05-15T09:23:01.654Z,10.03
2023-05-15T09:25:35.255Z,10.10
2023-05-15T09:28:01.847Z,10.10
2023-05-15T09:30:28.448Z,10.13
2023-05-15T09:32:56.429Z,10.18
2023-05-15T09:35:33.570Z,10.14
2023-05-15T09:38:01.799Z,10.04
2023-05-15T09:40:29.617Z,10.07
2023-05-15T09:42:56.395Z,10.11
2023-05-15T09:45:25.698Z,10.07
2023-05-15T09:47:53.035Z,10.10
2023-05-15T09:50:21.512Z,10.09
2023-05-15T09:52:50.199Z,10.21
2023-05-15T09:55:17.257Z,10.28
2023-05-15T09:57:43.752Z,10.28
2023-05-15T10:00:19.444Z,10.33
2023-05-15T10:02:46.268Z,10.34
2023-05-15T10:05:13.074Z,10.35
2023-05-15T10:07:39.584Z,10.38
2023-05-15T10:10:06.521Z,10.44
2023-05-15T10:12:36.591Z,10.56
2023-05-15T10:15:03.468Z,10.70
2023-05-15T10:17:32.090Z,10.76
2023-05-15T10:20:00.726Z,10.69
2023-05-15T10:22:30.853Z,10.69
2023-05-15T10:25:03.949Z,10.84
2023-05-15T10:27:31.145Z,10.96
2023-05-15T10:29:59.052Z,10.93
2023-05-15T10:32:26.231Z,10.88
2023-05-15T10:34:54.726Z,10.82
2023-05-15T10:37:22.854Z,10.81
2023-05-15T10:39:50.925Z,10.75
2023-05-15T10:42:17.940Z,10.72
2023-05-15T10:44:44.498Z,10.71
2023-05-15T10:47:11.106Z,10.70
2023-05-15T10:49:37.676Z,10.60
2023-05-15T10:52:04.613Z,10.61
2023-05-15T10:54:31.233Z,10.63
2023-05-15T10:56:58.262Z,10.56
2023-05-15T10:59:32.382Z,10.54
2023-05-15T11:02:19.132Z,10.51
2023-05-15T11:04:46.081Z,10.50
2023-05-15T11:07:14.951Z,10.45
2023-05-15T11:09:41.643Z,10.44
2023-05-15T11:12:14.525Z,10.44
2023-05-15T11:14:43.013Z,10.41
2023-05-15T11:17:11.721Z,10.38
2023-05-15T11:19:54.440Z,10.34
2023-05-15T11:22:25.664Z,10.28
2023-05-15T11:24:55.149Z,10.15
2023-05-15T11:27:44.403Z,10.24
2023-05-15T11:30:22.854Z,10.25
2023-05-15T11:33:04.669Z,10.23
2023-05-15T11:35:37.280Z,10.28
2023-05-15T11:38:09.414Z,10.21
2023-05-15T11:40:48.009Z,10.23
2023-05-15T11:43:21.690Z,10.25
2023-05-15T11:45:53.082Z,10.26
2023-05-15T11:48:20.719Z,10.27
2023-05-15T11:50:47.470Z,10.30
2023-05-15T11:53:14.931Z,10.26
2023-05-15T11:55:43.876Z,10.30
2023-05-15T11:58:18.101Z,10.18
2023-05-15T12:00:47.305Z,10.36
2023-05-15T12:03:20.508Z,10.40
2023-05-15T12:05:58.308Z,10.50
2023-05-15T12:08:26.896Z,10.56
2023-05-15T12:10:53.409Z,10.56
2023-05-15T12:13:19.848Z,10.51
2023-05-15T12:15:47.223Z,10.66
2023-05-15T12:18:14.117Z,10.73
2023-05-15T12:20:47.564Z,10.74
2023-05-15T12:23:17.881Z,10.79
2023-05-15T12:25:46.808Z,10.78
2023-05-15T12:28:14.499Z,10.85
2023-05-15T12:30:42.906Z,10.83
2023-05-15T12:33:10.828Z,10.79
2023-05-15T12:35:42.180Z,10.78
2023-05-15T12:38:09.061Z,10.83
2023-05-15T12:40:37.198Z,10.83
2023-05-15T12:43:07.879Z,10.76
2023-05-15T12:45:37.337Z,10.67
2023-05-15T12:48:04.714Z,10.60
2023-05-15T12:50:35.848Z,10.49
2023-05-15T12:53:04.678Z,10.38
2023-05-15T12:55:36.447Z,10.41
2023-05-15T12:58:07.920Z,10.30
2023-05-15T13:00:36.313Z,10.32
2023-05-15T13:03:05.053Z,10.26
2023-05-15T13:05:34.242Z,10.26
2023-05-15T13:08:02.697Z,10.22
2023-05-15T13:10:32.688Z,10.30
2023-05-15T13:12:59.570Z,10.35
2023-05-15T13:15:30.077Z,10.42
2023-05-15T13:18:01.011Z,10.40
2023-05-15T13:20:37.390Z,10.39
2023-05-15T13:23:04.211Z,10.34
2023-05-15T13:25:32.227Z,10.32
2023-05-15T13:28:01.402Z,10.36
2023-05-15T13:30:28.771Z,10.38
2023-05-15T13:32:56.041Z,10.38
2023-05-15T13:35:22.832Z,10.46
2023-05-15T13:37:49.686Z,10.49
2023-05-15T13:40:16.551Z,10.51
2023-05-15T13:42:44.644Z,10.46
2023-05-15T13:45:13.622Z,10.49
2023-05-15T13:47:41.581Z,10.50
2023-05-15T13:50:13.191Z,10.46
2023-05-15T13:52:42.600Z,10.41
2023-05-15T13:55:10.152Z,10.33
2023-05-15T13:57:38.121Z,10.34
2023-05-15T14:00:13.509Z,10.21
2023-05-15T14:02:41.189Z,10.33
2023-05-15T14:05:08.233Z,10.37
2023-05-15T14:07:34.973Z,10.35
2023-05-15T14:10:01.402Z,10.34
2023-05-15T14:12:27.884Z,10.27
2023-05-15T14:14:54.497Z,10.30
2023-05-15T14:17:22.411Z,10.32
2023-05-15T14:19:49.264Z,10.28
2023-05-15T14:22:15.773Z,10.16
2023-05-15T14:24:42.506Z,10.12
2023-05-15T14:27:09.271Z,10.10
2023-05-15T14:29:35.792Z,10.10
2023-05-15T14:32:02.362Z,10.07
2023-05-15T14:34:29.991Z,10.01
2023-05-15T14:36:56.480Z,9.96
2023-05-15T14:39:22.964Z,9.96
2023-05-15T14:41:49.738Z,9.97
2023-05-15T14:44:17.200Z,9.93
2023-05-15T14:46:43.737Z,9.86
2023-05-15T14:49:10.437Z,9.85
2023-05-15T14:51:36.876Z,9.88
2023-05-15T14:54:05.016Z,9.85
2023-05-15T14:56:31.789Z,9.84
2023-05-15T14:58:58.236Z,9.89
2023-05-15T15:01:24.704Z,9.91
2023-05-15T15:03:51.313Z,9.94
2023-05-15T15:06:17.921Z,9.84
2023-05-15T15:08:44.356Z,9.85
2023-05-15T15:11:10.915Z,9.79
2023-05-15T15:13:37.424Z,9.72
2023-05-15T15:16:04.774Z,9.70
2023-05-15T15:18:31.361Z,9.66
2023-05-15T15:20:57.854Z,9.58
2023-05-15T15:23:24.359Z,9.60
2023-05-15T15:25:50.774Z,9.45
2023-05-15T15:28:17.274Z,9.36
2023-05-15T15:30:43.811Z,9.38
2023-05-15T15:33:10.351Z,9.36
2023-05-15T15:35:36.814Z,9.33
2023-05-15T15:38:03.657Z,9.26
2023-05-15T15:40:30.225Z,9.15
2023-05-15T15:42:56.809Z,9.12
2023-05-15T15:45:23.263Z,9.05
2023-05-15T15:47:49.930Z,9.01
2023-05-15T15:50:16.630Z,8.98
2023-05-15T15:52:43.049Z,8.93
2023-05-15T15:55:09.871Z,8.94
2023-05-15T15:57:37.274Z,8.93
2023-05-15T16:00:05.308Z,8.90
2023-05-15T16:02:31.798Z,8.88
2023-05-15T16:04:58.253Z,8.86
2023-05-15T16:07:24.873Z,8.83
2023-05-15T16:10:00.298Z,8.86
2023-05-15T16:12:37.429Z,8.81
2023-05-15T16:15:17.452Z,8.85
2023-05-15T16:17:47.117Z,8.85
2023-05-15T16:20:13.597Z,8.95
2023-05-15T16:22:41.711Z,8.97
2023-05-15T16:25:08.666Z,8.95
2023-05-15T16:27:35.064Z,8.95
2023-05-15T16:30:01.689Z,8.93
2023-05-15T16:32:28.152Z,8.93
2023-05-15T16:34:54.698Z,8.91
2023-05-15T16:37:21.204Z,8.95
2023-05-15T16:39:47.684Z,8.96
2023-05-15T16:42:14.227Z,8.94
2023-05-15T16:44:40.627Z,8.92
2023-05-15T16:47:07.429Z,9.02
2023-05-15T16:49:33.969Z,8.99
2023-05-15T16:52:00.488Z,8.98
2023-05-15T16:54:27.007Z,9.01
2023-05-15T16:56:53.542Z,8.94
2023-05-15T16:59:20.070Z,9.02
2023-05-15T17:01:46.571Z,8.96
2023-05-15T17:04:13.026Z,8.89
2023-05-15T17:06:39.487Z,8.88
2023-05-15T17:09:06.052Z,8.86
2023-05-15T17:11:32.572Z,8.86
2023-05-15T17:13:59.150Z,8.81
2023-05-15T17:16:25.660Z,8.82
2023-05-15T17:18:52.328Z,8.79
2023-05-15T17:21:18.748Z,8.83
2023-05-15T17:23:48.214Z,8.79
2023-05-15T17:26:14.653Z,8.82
2023-05-15T17:28:41.107Z,8.80
2023-05-15T17:31:10.047Z,8.75
2023-05-15T17:33:36.759Z,8.75
2023-05-15T17:36:03.460Z,8.80
2023-05-15T17:38:29.945Z,8.75
2023-05-15T17:40:56.432Z,8.77
2023-05-15T17:43:22.968Z,8.82
2023-05-15T17:45:49.429Z,8.75
2023-05-15T17:48:16.179Z,8.73
2023-05-15T17:50:42.685Z,8.73
2023-05-15T17:53:09.202Z,8.72
2023-05-15T17:55:35.709Z,8.67
2023-05-15T17:58:02.332Z,8.65
2023-05-15T18:00:28.792Z,8.72
2023-05-15T18:02:56.138Z,8.67
2023-05-15T18:05:23.489Z,8.64
2023-05-15T18:07:50.124Z,8.58
2023-05-15T18:10:16.744Z,8.62
2023-05-15T18:12:43.323Z,8.64
2023-05-15T18:15:10.401Z,8.63
2023-05-15T18:17:36.955Z,8.61
2023-05-15T18:20:05.689Z,8.62
2023-05-15T18:22:33.236Z,8.61
2023-05-15T18:25:00.835Z,8.67
2023-05-15T18:27:27.434Z,8.61
2023-05-15T18:29:53.977Z,8.62
2023-05-15T18:32:20.493Z,8.63
2023-05-15T18:34:47.334Z,8.55
2023-05-15T18:37:13.909Z,8.54
2023-05-15T18:39:41.961Z,8.53
2023-05-15T18:42:08.586Z,8.57
2023-05-15T18:44:35.970Z,8.51
2023-05-15T18:47:03.609Z,8.53
2023-05-15T18:49:33.865Z,8.52
2023-05-15T18:52:00.348Z,8.48
2023-05-15T18:54:26.947Z,8.56
2023-05-15T18:56:53.438Z,8.48
2023-05-15T18:59:20.060Z,8.46
2023-05-15T19:01:48.749Z,8.46
2023-05-15T19:04:15.290Z,8.50
2023-05-15T19:06:43.510Z,8.50
2023-05-15T19:09:10.494Z,8.46
2023-05-15T19:11:37.072Z,8.47
2023-05-15T19:14:03.512Z,8.50
2023-05-15T19:16:30.047Z,8.49
2023-05-15T19:18:56.538Z,8.46
2023-05-15T19:21:23.134Z,8.44
2023-05-15T19:23:51.186Z,8.41
2023-05-15T19:26:18.817Z,8.43
2023-05-15T19:28:45.377Z,8.41
2023-05-15T19:31:20.219Z,8.41
2023-05-15T19:33:57.108Z,8.35
2023-05-15T19:36:23.974Z,8.39
2023-05-15T19:38:51.592Z,8.42
2023-05-15T19:41:18.120Z,8.29
2023-05-15T19:43:46.501Z,8.30
2023-05-15T19:46:13.630Z,8.25
2023-05-15T19:48:40.437Z,8.24
2023-05-15T19:51:07.240Z,8.27
2023-05-15T19:53:34.223Z,8.21
2023-05-15T19:56:00.842Z,8.12
2023-05-15T19:58:27.621Z,8.12
2023-05-15T20:00:54.736Z,8.15
2023-05-15T20:03:22.161Z,8.08
2023-05-15T20:05:49.164Z,8.12
2023-05-15T20:08:17.198Z,8.08
2023-05-15T20:10:51.144Z,8.00
2023-05-15T20:13:17.608Z,8.13
2023-05-15T20:15:44.546Z,8.13
2023-05-15T20:18:11.295Z,8.06
2023-05-15T20:20:38.145Z,8.07
2023-05-15T20:23:04.673Z,8.06
2023-05-15T20:25:31.445Z,8.00
2023-05-15T20:27:58.768Z,8.04
2023-05-15T20:30:27.133Z,7.98
2023-05-15T20:32:54.113Z,7.98
2023-05-15T20:35:20.854Z,7.99
2023-05-15T20:37:47.560Z,7.91
2023-05-15T20:40:15.834Z,7.89
2023-05-15T20:42:42.945Z,7.83
2023-05-15T20:45:10.140Z,7.78
2023-05-15T20:47:36.774Z,7.81
2023-05-15T20:50:03.756Z,7.84
2023-05-15T20:52:30.636Z,7.85
2023-05-15T20:54:57.132Z,7.83
2023-05-15T20:57:23.760Z,7.84
2023-05-15T20:59:50.308Z,7.83
2023-05-15T21:02:16.911Z,7.83
2023-05-15T21:04:44.042Z,7.89
2023-05-15T21:07:10.578Z,7.85
2023-05-15T21:09:37.006Z,7.80
2023-05-15T21:12:04.201Z,7.82
2023-05-15T21:14:30.850Z,7.82
2023-05-15T21:16:57.762Z,7.82
2023-05-15T21:19:24.440Z,7.62
2023-05-15T21:21:51.159Z,7.65
2023-05-15T21:24:17.839Z,7.60
2023-05-15T21:26:44.301Z,7.67
2023-05-15T21:29:11.178Z,7.59
2023-05-15T21:31:37.716Z,7.54
2023-05-15T21:34:04.327Z,7.53
2023-05-15T21:36:31.311Z,7.56
2023-05-15T21:38:57.800Z,7.55
2023-05-15T21:41:26.057Z,7.55
2023-05-15T21:43:52.701Z,7.54
2023-05-15T21:46:19.441Z,7.50
2023-05-15T21:48:46.595Z,7.48
2023-05-15T21:51:13.117Z,7.31
2023-05-15T21:53:39.619Z,7.32
2023-05-15T21:56:06.601Z,7.45
2023-05-15T21:58:33.124Z,7.35
2023-05-15T22:00:59.603Z,7.35
2023-05-15T22:03:26.350Z,7.29
2023-05-15T22:05:53.205Z,7.34
2023-05-15T22:08:20.346Z,7.28
2023-05-15T22:10:47.497Z,7.33
2023-05-15T22:13:14.047Z,7.23
2023-05-15T22:15:40.483Z,7.27
2023-05-15T22:18:08.158Z,7.27
2023-05-15T22:20:34.740Z,7.23
2023-05-15T22:23:01.167Z,7.24
2023-05-15T22:25:27.730Z,7.23
2023-05-15T22:27:54.357Z,7.27
2023-05-15T22:30:21.121Z,7.31
2023-05-15T22:32:48.923Z,7.33
2023-05-15T22:35:15.811Z,7.24
2023-05-15T22:37:42.417Z,7.28
2023-05-15T22:40:10.530Z,7.20
2023-05-15T22:42:37.286Z,7.19
2023-05-15T22:45:05.935Z,7.11
2023-05-15T22:47:33.100Z,7.06
2023-05-15T22:49:59.668Z,7.07
2023-05-15T22:52:26.453Z,6.95
2023-05-15T22:54:52.919Z,7.03
2023-05-15T22:57:19.495Z,7.07
2023-05-15T22:59:46.128Z,6.98
2023-05-15T23:02:13.615Z,7.00
2023-05-15T23:04:40.146Z,7.01
2023-05-15T23:07:06.854Z,7.00
2023-05-15T23:09:33.438Z,7.06
2023-05-15T23:12:00.772Z,7.04
2023-05-15T23:14:27.236Z,7.08
2023-05-15T23:16:53.842Z,7.08
2023-05-15T23:19:20.446Z,7.05
2023-05-15T23:21:47.236Z,7.07
2023-05-15T23:24:13.689Z,7.12
2023-05-15T23:26:40.376Z,7.08
2023-05-15T23:29:06.811Z,6.96
2023-05-15T23:31:33.682Z,7.05
2023-05-15T23:34:00.566Z,7.01
2023-05-15T23:36:27.128Z,6.99
2023-05-15T23:38:53.638Z,6.99
2023-05-15T23:41:21.984Z,6.94
2023-05-15T23:43:50.463Z,6.95
2023-05-15T23:46:17.681Z,6.88
2023-05-15T23:48:44.336Z,6.84
2023-05-15T23:51:10.975Z,6.82
2023-05-15T23:53:37.561Z,6.79
2023-05-15T23:56:04.359Z,6.82
2023-05-15T23:58:31.212Z,6.73
